aviador You're here:

KLXT Decoded Metar

LEES SUMMIT MUNI in MO, USA
Report Time2017-12-16 17:53:00
UTC Time2017-12-16 18:44:50
Flight Rules vfr VFR
Wind210° at 18 kt
W.Decomp.*RWY 18: 15.9 kt HW 8.5 kt RCW
RWY 29: 2.5 kt HW 17.8 kt LCW
W.Rank210° ranks 4
Current wind is above 210° avg. (9.5)
Visibility9999 m
Phenomena:N/A
Clouds:N/A
Expected CloudBase > 5,600 ft AGL from Temp-Dew spread
CeilingNone
Temp12°C (ISA -1)
Dew Point-2°C (38% RH)
AAT3.3°C
QNH1013 hPa
Density Alt961 ft
Elevation1,004 ft
Report Wrong Elevation
Raw Report
KLXT 161753Z AUTO 21018KT 10SM CLR 12/M02 A2990 RMK AO2 SLP128
T01171022 10117 20033 50000=

Extra information for KLXT:More info

Metar Taf Metar & Taf Last 4 Metars F.Rules Stats Wind Profile Meteogram Temp Stats Airport Information Weather charts Add Link Nearby VenuesMetar ALERT Operation Metar Decoded Social comments

AIRNAV info for KLXT